createdAt,value
2018-04-14T00:01:04.068Z,98890.34
2018-04-14T00:03:37.777Z,98900.74
2018-04-14T00:06:11.401Z,98900.98
2018-04-14T00:08:45.220Z,98906.72
2018-04-14T00:11:18.877Z,98903.63
2018-04-14T00:13:52.629Z,98897.56
2018-04-14T00:16:26.603Z,98904.37
2018-04-14T00:19:00.229Z,98902.75
2018-04-14T00:21:33.938Z,98905.00
2018-04-14T00:24:07.695Z,98911.37
2018-04-14T00:26:41.395Z,98916.70
2018-04-14T00:29:14.969Z,98913.52
2018-04-14T00:31:48.625Z,98915.19
2018-04-14T00:34:22.183Z,98918.29
2018-04-14T00:36:55.829Z,98920.25
2018-04-14T00:39:29.570Z,98923.59
2018-04-14T00:42:03.295Z,98923.89
2018-04-14T00:44:36.892Z,98930.83
2018-04-14T00:47:10.453Z,98931.88
2018-04-14T00:49:44.009Z,98931.00
2018-04-14T00:52:17.810Z,98930.52
2018-04-14T00:54:51.541Z,98938.73
2018-04-14T00:57:25.560Z,98938.27
2018-04-14T00:59:59.216Z,98937.80
2018-04-14T01:02:32.941Z,98941.17
2018-04-14T01:05:06.994Z,98937.72
2018-04-14T01:07:40.671Z,98933.91
2018-04-14T01:10:14.452Z,98942.29
2018-04-14T01:12:48.153Z,98935.04
2018-04-14T01:15:21.945Z,98934.20
2018-04-14T01:17:55.709Z,98930.59
2018-04-14T01:20:29.482Z,98925.92
2018-04-14T01:23:03.316Z,98922.97
2018-04-14T01:25:36.932Z,98929.88
2018-04-14T01:28:10.685Z,98930.48
2018-04-14T01:30:44.241Z,98932.41
2018-04-14T01:33:17.834Z,98927.61
2018-04-14T01:35:51.590Z,98927.25
2018-04-14T01:38:25.348Z,98930.66
2018-04-14T01:40:59.196Z,98931.18
2018-04-14T01:43:32.745Z,98928.59
2018-04-14T01:46:06.489Z,98939.17
2018-04-14T01:48:40.517Z,98930.11
2018-04-14T01:51:14.344Z,98927.33
2018-04-14T01:53:48.060Z,98916.69
2018-04-14T01:56:21.749Z,98923.06
2018-04-14T01:58:55.354Z,98925.94
2018-04-14T02:01:29.279Z,98925.13
2018-04-14T02:04:03.064Z,98926.34
2018-04-14T02:06:36.851Z,98933.31
2018-04-14T02:09:10.561Z,98929.58
2018-04-14T02:11:44.342Z,98924.73
2018-04-14T02:14:18.247Z,98931.67
2018-04-14T02:16:51.877Z,98934.27
2018-04-14T02:19:25.640Z,98924.36
2018-04-14T02:21:59.329Z,98924.92
2018-04-14T02:24:33.051Z,98926.37
2018-04-14T02:27:07.061Z,98925.56
2018-04-14T02:29:40.675Z,98918.44
2018-04-14T02:32:14.404Z,98915.66
2018-04-14T02:34:47.972Z,98915.14
2018-04-14T02:37:21.692Z,98917.42
2018-04-14T02:39:55.352Z,98921.12
2018-04-14T02:42:29.056Z,98919.52
2018-04-14T02:45:02.777Z,98931.73
2018-04-14T02:47:36.528Z,98937.92
2018-04-14T02:50:10.265Z,98945.12
2018-04-14T02:52:43.913Z,98952.80
2018-04-14T02:55:17.794Z,98956.67
2018-04-14T02:57:51.587Z,98958.09
2018-04-14T03:00:25.355Z,98960.09
2018-04-14T03:02:58.994Z,98960.90
2018-04-14T03:05:32.689Z,98958.44
2018-04-14T03:08:06.499Z,98960.95
2018-04-14T03:10:40.463Z,98971.79
2018-04-14T03:13:14.558Z,98958.07
2018-04-14T03:15:48.228Z,98963.53
2018-04-14T03:18:21.940Z,98961.66
2018-04-14T03:20:55.649Z,98962.86
2018-04-14T03:23:29.625Z,98962.42
2018-04-14T03:26:03.395Z,98964.60
2018-04-14T03:28:36.972Z,98955.16
2018-04-14T03:31:10.854Z,98952.89
2018-04-14T03:33:44.657Z,98957.63
2018-04-14T03:36:18.300Z,98958.38
2018-04-14T03:38:52.077Z,98956.88
2018-04-14T03:41:25.792Z,98957.99
2018-04-14T03:43:59.382Z,98964.20
2018-04-14T03:46:33.155Z,98968.17
2018-04-14T03:49:06.712Z,98973.25
2018-04-14T03:51:40.417Z,98973.52
2018-04-14T03:54:14.032Z,98971.52
2018-04-14T03:56:47.796Z,98976.69
2018-04-14T03:59:21.385Z,98981.36
2018-04-14T04:01:54.909Z,98981.70
2018-04-14T04:04:28.529Z,98988.74
2018-04-14T04:07:02.094Z,98996.65
2018-04-14T04:09:35.952Z,99001.77
2018-04-14T04:12:09.546Z,98999.52
2018-04-14T04:14:43.243Z,99000.29
2018-04-14T04:17:16.860Z,99002.19
2018-04-14T04:20:03.313Z,99006.41
2018-04-14T04:22:48.921Z,99007.98
2018-04-14T04:25:24.436Z,99013.87
2018-04-14T04:27:58.101Z,99014.78
2018-04-14T04:30:31.803Z,99023.16
2018-04-14T04:33:05.525Z,99020.38
2018-04-14T04:35:39.242Z,99026.57
2018-04-14T04:38:12.952Z,99032.84
2018-04-14T04:40:46.668Z,99043.48
2018-04-14T04:43:20.317Z,99048.55
2018-04-14T04:45:54.114Z,99042.05
2018-04-14T04:48:27.821Z,99044.66
2018-04-14T04:51:01.464Z,99046.94
2018-04-14T04:53:35.051Z,99061.66
2018-04-14T04:56:08.781Z,99058.05
2018-04-14T04:58:42.648Z,99050.85
2018-04-14T05:01:16.457Z,99057.14
2018-04-14T05:03:50.189Z,99059.73
2018-04-14T05:06:23.873Z,99053.02
2018-04-14T05:08:57.647Z,99057.89
2018-04-14T05:11:31.460Z,99057.28
2018-04-14T05:14:05.227Z,99056.89
2018-04-14T05:16:38.797Z,99057.64
2018-04-14T05:19:12.552Z,99072.22
2018-04-14T05:21:46.269Z,99072.02
2018-04-14T05:24:20.012Z,99078.80
2018-04-14T05:26:53.697Z,99087.64
2018-04-14T05:29:27.316Z,99086.94
2018-04-14T05:32:00.965Z,99093.08
2018-04-14T05:34:34.745Z,99092.89
2018-04-14T05:37:08.434Z,99093.97
2018-04-14T05:39:42.133Z,99099.31
2018-04-14T05:42:15.883Z,99104.48
2018-04-14T05:44:49.642Z,99105.02
2018-04-14T05:47:23.385Z,99108.44
2018-04-14T05:49:57.022Z,99110.40
2018-04-14T05:52:30.605Z,99108.33
2018-04-14T05:55:04.447Z,99110.34
2018-04-14T05:57:38.229Z,99113.83
2018-04-14T06:00:11.846Z,99104.33
2018-04-14T06:02:45.379Z,99107.73
2018-04-14T06:05:19.197Z,99107.88
2018-04-14T06:07:52.776Z,99116.83
2018-04-14T06:10:26.325Z,99122.70
2018-04-14T06:12:59.911Z,99121.05
2018-04-14T06:15:33.472Z,99124.31
2018-04-14T06:18:07.132Z,99123.36
2018-04-14T06:20:40.756Z,99123.70
2018-04-14T06:23:14.344Z,99130.07
2018-04-14T06:25:47.863Z,99133.22
2018-04-14T06:28:21.386Z,99131.44
2018-04-14T06:30:55.158Z,99140.63
2018-04-14T06:33:28.822Z,99148.04
2018-04-14T06:36:02.604Z,99153.72
2018-04-14T06:38:36.276Z,99151.59
2018-04-14T06:41:09.812Z,99148.52
2018-04-14T06:43:43.600Z,99153.56
2018-04-14T06:46:17.104Z,99159.33
2018-04-14T06:48:50.878Z,99164.61
2018-04-14T06:51:24.644Z,99163.36
2018-04-14T06:53:58.421Z,99170.84
2018-04-14T06:56:32.260Z,99173.44
2018-04-14T06:59:06.026Z,99169.42
2018-04-14T07:01:39.811Z,99174.80
2018-04-14T07:04:13.397Z,99175.44
2018-04-14T07:06:46.962Z,99178.28
2018-04-14T07:09:20.651Z,99178.98
2018-04-14T07:11:54.300Z,99184.38
2018-04-14T07:14:28.052Z,99178.67
2018-04-14T07:17:01.972Z,99183.83
2018-04-14T07:19:35.678Z,99179.89
2018-04-14T07:22:09.477Z,99189.25
2018-04-14T07:24:43.314Z,99186.69
2018-04-14T07:27:17.053Z,99192.90
2018-04-14T07:29:50.888Z,99201.47
2018-04-14T07:32:24.460Z,99201.95
2018-04-14T07:34:58.235Z,99191.62
2018-04-14T07:37:31.865Z,99198.19
2018-04-14T07:40:05.549Z,99197.54
2018-04-14T07:42:39.210Z,99214.56
2018-04-14T07:45:13.040Z,99223.23
2018-04-14T07:47:46.703Z,99229.14
2018-04-14T07:50:20.411Z,99224.13
2018-04-14T07:52:54.057Z,99228.31
2018-04-14T07:55:27.708Z,99227.08
2018-04-14T07:58:01.493Z,99228.92
2018-04-14T08:00:35.218Z,99231.02
2018-04-14T08:03:08.987Z,99221.64
2018-04-14T08:05:42.631Z,99238.18
2018-04-14T08:08:16.465Z,99233.60
2018-04-14T08:10:50.104Z,99239.59
2018-04-14T08:13:23.751Z,99245.77
2018-04-14T08:15:57.396Z,99252.80
2018-04-14T08:18:31.152Z,99252.69
2018-04-14T08:21:04.747Z,99253.38
2018-04-14T08:23:38.305Z,99251.75
2018-04-14T08:26:11.949Z,99256.88
2018-04-14T08:28:45.677Z,99258.74
2018-04-14T08:31:19.176Z,99257.58
2018-04-14T08:33:52.869Z,99260.11
2018-04-14T08:36:26.586Z,99272.31
2018-04-14T08:39:00.423Z,99270.55
2018-04-14T08:41:34.216Z,99277.13
2018-04-14T08:44:07.741Z,99267.52
2018-04-14T08:46:41.440Z,99269.09
2018-04-14T08:49:15.114Z,99270.25
2018-04-14T08:51:48.628Z,99264.83
2018-04-14T08:54:22.396Z,99270.55
2018-04-14T08:56:56.135Z,99268.83
2018-04-14T08:59:29.856Z,99268.91
2018-04-14T09:02:03.502Z,99271.31
2018-04-14T09:04:36.990Z,99276.70
2018-04-14T09:07:10.556Z,99273.01
2018-04-14T09:09:44.419Z,99279.34
2018-04-14T09:12:18.073Z,99276.48
2018-04-14T09:14:51.751Z,99282.89
2018-04-14T09:17:25.304Z,99282.16
2018-04-14T09:19:58.877Z,99284.27
2018-04-14T09:22:32.397Z,99280.55
2018-04-14T09:25:05.988Z,99275.54
2018-04-14T09:27:39.734Z,99281.13
2018-04-14T09:30:13.483Z,99283.03
2018-04-14T09:32:47.192Z,99274.08
2018-04-14T09:35:20.819Z,99279.98
2018-04-14T09:37:54.492Z,99281.25
2018-04-14T09:40:28.143Z,99280.03
2018-04-14T09:43:01.677Z,99285.45
2018-04-14T09:45:35.264Z,99274.38
2018-04-14T09:48:08.807Z,99279.97
2018-04-14T09:50:42.348Z,99285.63
2018-04-14T09:53:15.883Z,99288.00
2018-04-14T09:55:49.459Z,99291.91
2018-04-14T09:58:23.000Z,99283.63
2018-04-14T10:01:01.777Z,99292.09
2018-04-14T10:03:35.465Z,99289.69
2018-04-14T10:06:09.166Z,99292.55
2018-04-14T10:08:43.610Z,99297.52
2018-04-14T10:11:17.330Z,99295.17
2018-04-14T10:13:50.987Z,99291.80
2018-04-14T10:16:24.945Z,99291.56
2018-04-14T10:18:58.774Z,99281.91
2018-04-14T10:21:32.609Z,99279.68
2018-04-14T10:24:06.261Z,99285.58
2018-04-14T10:26:40.116Z,99277.94
2018-04-14T10:29:13.799Z,99280.08
2018-04-14T10:31:47.557Z,99275.50
2018-04-14T10:34:21.158Z,99272.29
2018-04-14T10:36:55.209Z,99274.14
2018-04-14T10:39:29.024Z,99275.22
2018-04-14T10:42:02.627Z,99269.25
2018-04-14T10:44:36.362Z,99266.22
2018-04-14T10:47:10.105Z,99265.97
2018-04-14T10:49:43.699Z,99279.09
2018-04-14T10:52:17.343Z,99272.13
2018-04-14T10:54:50.970Z,99267.52
2018-04-14T10:57:24.762Z,99259.28
2018-04-14T10:59:58.364Z,99259.92
2018-04-14T11:02:31.939Z,99264.70
2018-04-14T11:05:05.537Z,99269.45
2018-04-14T11:07:39.061Z,99255.56
2018-04-14T11:10:12.597Z,99256.31
2018-04-14T11:12:46.199Z,99262.56
2018-04-14T11:15:19.963Z,99264.39
2018-04-14T11:17:53.676Z,99264.10
2018-04-14T11:20:27.427Z,99270.89
2018-04-14T11:23:00.998Z,99263.16
2018-04-14T11:25:34.529Z,99266.85
2018-04-14T11:28:08.272Z,99268.13
2018-04-14T11:30:41.883Z,99266.30
2018-04-14T11:33:20.468Z,99272.84
2018-04-14T11:35:53.963Z,99265.21
2018-04-14T11:38:27.512Z,99262.42
2018-04-14T11:41:01.150Z,99270.25
2018-04-14T11:43:34.748Z,99272.45
2018-04-14T11:46:08.384Z,99271.69
2018-04-14T11:48:41.924Z,99271.14
2018-04-14T11:51:15.564Z,99274.45
2018-04-14T11:53:49.261Z,99272.73
2018-04-14T11:56:22.843Z,99280.75
2018-04-14T11:58:56.508Z,99278.23
2018-04-14T12:01:30.111Z,99278.42
2018-04-14T12:04:03.960Z,99275.16
2018-04-14T12:06:37.580Z,99274.05
2018-04-14T12:09:11.264Z,99280.58
2018-04-14T12:11:44.947Z,99289.09
2018-04-14T12:14:18.620Z,99287.21
2018-04-14T12:16:52.208Z,99286.77
2018-04-14T12:19:25.988Z,99281.02
2018-04-14T12:21:59.620Z,99276.57
2018-04-14T12:24:33.353Z,99279.80
2018-04-14T12:27:07.102Z,99276.28
2018-04-14T12:29:40.681Z,99280.30
2018-04-14T12:32:14.452Z,99275.69
2018-04-14T12:34:48.835Z,99280.97
2018-04-14T12:37:22.489Z,99273.65
2018-04-14T12:39:56.279Z,99277.45
2018-04-14T12:42:30.036Z,99276.58
2018-04-14T12:45:03.914Z,99276.76
2018-04-14T12:47:37.564Z,99277.66
2018-04-14T12:50:11.140Z,99273.89
2018-04-14T12:52:44.942Z,99278.98
2018-04-14T12:55:18.443Z,99275.73
2018-04-14T12:57:52.199Z,99281.33
2018-04-14T13:00:25.999Z,99271.18
2018-04-14T13:02:59.663Z,99272.06
2018-04-14T13:05:33.440Z,99271.05
2018-04-14T13:08:07.075Z,99274.67
2018-04-14T13:10:40.660Z,99273.62
2018-04-14T13:13:14.216Z,99272.72
2018-04-14T13:15:47.813Z,99267.83
2018-04-14T13:18:21.402Z,99275.13
2018-04-14T13:20:55.056Z,99270.94
2018-04-14T13:23:28.809Z,99275.95
2018-04-14T13:26:02.514Z,99267.13
2018-04-14T13:28:36.061Z,99276.05
2018-04-14T13:31:09.680Z,99265.71
2018-04-14T13:33:43.395Z,99275.95
2018-04-14T13:36:17.061Z,99269.73
2018-04-14T13:38:50.724Z,99269.26
2018-04-14T13:41:24.330Z,99267.59
2018-04-14T13:43:58.072Z,99260.41
2018-04-14T13:46:31.830Z,99261.48
2018-04-14T13:49:05.409Z,99262.20
2018-04-14T13:51:39.059Z,99255.31
2018-04-14T13:54:12.772Z,99256.47
2018-04-14T13:56:46.424Z,99250.41
2018-04-14T13:59:20.071Z,99253.58
2018-04-14T14:01:53.825Z,99244.77
2018-04-14T14:04:27.397Z,99244.06
2018-04-14T14:07:00.977Z,99248.27
2018-04-14T14:09:34.723Z,99239.35
2018-04-14T14:12:08.390Z,99240.45
2018-04-14T14:14:42.125Z,99236.30
2018-04-14T14:17:15.888Z,99237.45
2018-04-14T14:19:49.463Z,99241.41
2018-04-14T14:22:23.216Z,99232.41
2018-04-14T14:24:56.835Z,99236.81
2018-04-14T14:27:30.596Z,99236.00
2018-04-14T14:30:04.194Z,99218.94
2018-04-14T14:32:37.823Z,99217.65
2018-04-14T14:35:11.357Z,99206.24
2018-04-14T14:37:44.885Z,99200.45
2018-04-14T14:40:18.717Z,99195.08
2018-04-14T14:42:52.293Z,99193.06
2018-04-14T14:45:25.829Z,99193.91
2018-04-14T14:47:59.603Z,99194.39
2018-04-14T14:50:33.319Z,99201.63
2018-04-14T14:53:06.981Z,99196.69
2018-04-14T14:55:40.655Z,99199.91
2018-04-14T14:58:14.305Z,99196.29
2018-04-14T15:00:48.016Z,99201.78
2018-04-14T15:03:21.693Z,99198.11
2018-04-14T15:05:55.348Z,99196.47
2018-04-14T15:08:28.923Z,99197.14
2018-04-14T15:11:02.579Z,99198.38
2018-04-14T15:13:36.197Z,99196.38
2018-04-14T15:16:09.852Z,99191.48
2018-04-14T15:18:43.519Z,99183.44
2018-04-14T15:21:17.083Z,99185.63
2018-04-14T15:23:50.650Z,99181.06
2018-04-14T15:26:24.270Z,99173.83
2018-04-14T15:28:57.836Z,99179.78
2018-04-14T15:31:31.478Z,99183.28
2018-04-14T15:34:05.238Z,99185.16
2018-04-14T15:36:38.900Z,99187.31
2018-04-14T15:39:12.836Z,99181.14
2018-04-14T15:41:46.340Z,99180.11
2018-04-14T15:44:19.864Z,99194.17
2018-04-14T15:46:53.453Z,99185.64
2018-04-14T15:49:27.025Z,99179.56
2018-04-14T15:52:00.572Z,99182.25
2018-04-14T15:54:34.163Z,99178.10
2018-04-14T15:57:07.803Z,99177.16
2018-04-14T15:59:41.416Z,99179.88
2018-04-14T16:02:15.176Z,99178.70
2018-04-14T16:04:48.942Z,99178.98
2018-04-14T16:07:22.563Z,99188.44
2018-04-14T16:09:56.086Z,99188.05
2018-04-14T16:12:29.783Z,99187.37
2018-04-14T16:15:03.544Z,99181.73
2018-04-14T16:17:39.653Z,99186.84
2018-04-14T16:20:14.308Z,99185.19
2018-04-14T16:22:48.105Z,99187.05
2018-04-14T16:25:21.782Z,99187.22
2018-04-14T16:27:55.441Z,99183.97
2018-04-14T16:30:29.091Z,99182.71
2018-04-14T16:33:02.722Z,99181.19
2018-04-14T16:35:36.419Z,99181.91
2018-04-14T16:38:10.110Z,99179.09
2018-04-14T16:40:43.689Z,99178.40
2018-04-14T16:43:17.380Z,99184.27
2018-04-14T16:45:51.096Z,99186.04
2018-04-14T16:48:24.842Z,99186.63
2018-04-14T16:50:58.452Z,99189.36
2018-04-14T16:53:32.095Z,99190.39
2018-04-14T16:56:05.836Z,99191.89
2018-04-14T16:58:39.490Z,99191.38
2018-04-14T17:01:13.266Z,99190.64
2018-04-14T17:03:46.817Z,99182.94
2018-04-14T17:06:20.392Z,99173.77
2018-04-14T17:08:54.090Z,99180.73
2018-04-14T17:11:27.782Z,99179.54
2018-04-14T17:14:01.330Z,99174.14
2018-04-14T17:16:35.057Z,99167.39
2018-04-14T17:19:08.538Z,99179.62
2018-04-14T17:21:42.340Z,99178.76
2018-04-14T17:24:16.040Z,99173.88
2018-04-14T17:26:49.611Z,99173.36
2018-04-14T17:29:23.166Z,99178.37
2018-04-14T17:31:56.916Z,99179.80
2018-04-14T17:34:30.485Z,99169.00
2018-04-14T17:37:04.168Z,99175.91
2018-04-14T17:39:37.817Z,99180.06
2018-04-14T17:42:11.397Z,99181.45
2018-04-14T17:44:45.200Z,99178.64
2018-04-14T17:47:18.878Z,99175.45
2018-04-14T17:49:52.533Z,99177.53
2018-04-14T17:52:26.041Z,99183.50
2018-04-14T17:54:59.715Z,99181.16
2018-04-14T17:57:33.257Z,99179.00
2018-04-14T18:00:06.864Z,99176.16
2018-04-14T18:02:40.468Z,99176.95
2018-04-14T18:05:14.020Z,99182.63
2018-04-14T18:07:47.668Z,99181.78
2018-04-14T18:10:21.198Z,99181.91
2018-04-14T18:12:54.900Z,99180.74
2018-04-14T18:15:28.580Z,99176.17
2018-04-14T18:18:02.158Z,99179.42
2018-04-14T18:20:35.925Z,99176.62
2018-04-14T18:23:09.472Z,99179.22
2018-04-14T18:25:43.044Z,99178.75
2018-04-14T18:28:16.640Z,99179.38
2018-04-14T18:30:50.310Z,99176.34
2018-04-14T18:33:24.076Z,99181.42
2018-04-14T18:35:57.701Z,99179.65
2018-04-14T18:38:31.332Z,99180.88
2018-04-14T18:41:04.878Z,99180.52
2018-04-14T18:43:38.712Z,99180.05
2018-04-14T18:46:12.382Z,99180.05
2018-04-14T18:48:45.965Z,99184.41
2018-04-14T18:51:19.848Z,99188.85
2018-04-14T18:53:53.305Z,99192.88
2018-04-14T18:56:26.948Z,99191.31
2018-04-14T18:59:00.616Z,99193.97
2018-04-14T19:01:34.219Z,99203.00
2018-04-14T19:04:07.985Z,99194.44
2018-04-14T19:06:41.679Z,99188.23
2018-04-14T19:09:15.386Z,99192.98
2018-04-14T19:11:48.957Z,99191.66
2018-04-14T19:14:22.692Z,99188.95
2018-04-14T19:16:56.259Z,99183.45
2018-04-14T19:19:29.914Z,99194.63
2018-04-14T19:22:03.456Z,99195.30
2018-04-14T19:24:37.056Z,99190.63
2018-04-14T19:27:10.658Z,99188.46
2018-04-14T19:29:44.420Z,99187.77
2018-04-14T19:32:18.055Z,99184.79
2018-04-14T19:34:51.755Z,99187.33
2018-04-14T19:37:25.332Z,99188.49
2018-04-14T19:39:59.075Z,99187.36
2018-04-14T19:42:32.764Z,99187.26
2018-04-14T19:45:06.375Z,99191.46
2018-04-14T19:47:40.243Z,99190.93
2018-04-14T19:50:13.766Z,99173.02
2018-04-14T19:52:47.437Z,99180.48
2018-04-14T19:55:21.117Z,99179.34
2018-04-14T19:57:54.694Z,99181.39
2018-04-14T20:00:28.496Z,99173.38
2018-04-14T20:03:02.042Z,99167.20
2018-04-14T20:05:35.753Z,99175.78
2018-04-14T20:08:09.589Z,99168.34
2018-04-14T20:10:43.207Z,99169.08
2018-04-14T20:13:16.790Z,99168.20
2018-04-14T20:15:50.427Z,99163.07
2018-04-14T20:18:23.980Z,99162.89
2018-04-14T20:20:57.508Z,99170.46
2018-04-14T20:23:31.072Z,99178.03
2018-04-14T20:26:04.729Z,99175.12
2018-04-14T20:28:38.559Z,99180.67
2018-04-14T20:31:12.431Z,99186.80
2018-04-14T20:33:45.996Z,99173.62
2018-04-14T20:36:19.685Z,99175.92
2018-04-14T20:38:53.397Z,99170.26
2018-04-14T20:41:26.970Z,99167.31
2018-04-14T20:44:00.689Z,99175.61
2018-04-14T20:46:34.319Z,99174.25
2018-04-14T20:49:07.947Z,99177.83
2018-04-14T20:51:41.538Z,99169.42
2018-04-14T20:54:15.076Z,99171.25
2018-04-14T20:56:48.608Z,99162.74
2018-04-14T20:59:22.179Z,99151.05
2018-04-14T21:01:55.970Z,99155.58
2018-04-14T21:04:29.572Z,99152.56
2018-04-14T21:07:03.453Z,99151.25
2018-04-14T21:09:37.274Z,99150.55
2018-04-14T21:12:10.849Z,99145.82
2018-04-14T21:14:44.512Z,99146.92
2018-04-14T21:17:18.061Z,99146.13
2018-04-14T21:19:51.615Z,99144.03
2018-04-14T21:22:25.212Z,99146.69
2018-04-14T21:24:58.766Z,99143.14
2018-04-14T21:27:32.422Z,99143.89
2018-04-14T21:30:06.154Z,99144.78
2018-04-14T21:32:39.701Z,99148.17
2018-04-14T21:35:13.199Z,99148.26
2018-04-14T21:37:46.960Z,99136.84
2018-04-14T21:40:20.492Z,99137.55
2018-04-14T21:42:54.054Z,99129.30
2018-04-14T21:45:27.661Z,99134.16
2018-04-14T21:48:01.355Z,99131.85
2018-04-14T21:50:34.972Z,99122.05
2018-04-14T21:53:08.501Z,99122.22
2018-04-14T21:55:42.160Z,99113.51
2018-04-14T21:58:15.885Z,99112.13
2018-04-14T22:00:49.576Z,99105.63
2018-04-14T22:03:23.054Z,99109.23
2018-04-14T22:05:56.616Z,99108.19
2018-04-14T22:08:30.278Z,99109.85
2018-04-14T22:11:03.984Z,99102.16
2018-04-14T22:13:37.632Z,99106.42
2018-04-14T22:16:11.411Z,99106.84
2018-04-14T22:18:45.253Z,99102.98
2018-04-14T22:21:19.012Z,99101.84
2018-04-14T22:23:52.544Z,99098.88
2018-04-14T22:26:26.216Z,99098.40
2018-04-14T22:28:59.782Z,99098.70
2018-04-14T22:31:33.480Z,99094.22
2018-04-14T22:34:07.022Z,99095.97
2018-04-14T22:36:40.568Z,99092.48
2018-04-14T22:39:14.177Z,99094.41
2018-04-14T22:41:47.962Z,99092.01
2018-04-14T22:44:21.561Z,99093.87
2018-04-14T22:46:55.115Z,99088.71
2018-04-14T22:49:28.835Z,99086.14
2018-04-14T22:52:02.351Z,99086.00
2018-04-14T22:54:36.071Z,99088.01
2018-04-14T22:57:09.619Z,99084.98
2018-04-14T22:59:43.212Z,99075.50
2018-04-14T23:02:16.822Z,99076.06
2018-04-14T23:04:50.657Z,99077.92
2018-04-14T23:07:24.359Z,99083.27
2018-04-14T23:09:58.104Z,99073.57
2018-04-14T23:12:31.712Z,99080.49
2018-04-14T23:15:05.270Z,99082.40
2018-04-14T23:17:38.967Z,99088.63
2018-04-14T23:20:12.636Z,99096.46
2018-04-14T23:22:46.263Z,99134.96
2018-04-14T23:25:20.648Z,99132.70
2018-04-14T23:27:54.306Z,99139.50
2018-04-14T23:30:27.934Z,99140.56
2018-04-14T23:33:01.713Z,99147.71
2018-04-14T23:35:35.496Z,99140.27
2018-04-14T23:38:09.157Z,99150.13
2018-04-14T23:40:42.856Z,99142.99
2018-04-14T23:43:16.462Z,99145.23
2018-04-14T23:45:50.018Z,99145.41
2018-04-14T23:48:23.828Z,99141.55
2018-04-14T23:50:57.433Z,99144.28
2018-04-14T23:53:30.978Z,99141.30
2018-04-14T23:56:04.748Z,99139.04
2018-04-14T23:58:38.476Z,99143.08
